Time;durP1;ratioP1;P1;durP2;ratioP2;P2;SDS_P1;SDS_P2;PMS_P1;PMS_P2;Temp;Humidity;BMP_temperature;BMP_pressure;BME280_temperature;BME280_humidity;BME280_pressure;Samples;Min_cycle;Max_cycle;Signal;HPM_P1;HPM_P2
2023/06/23 00:04:52;;;;;;;8.18;5.32;;;;;;;;;;10500342;28;20044;-58
2023/06/23 00:09:53;;;;;;;12.10;5.22;;;;;;;;;;10491223;28;20052;-59
2023/06/23 00:14:54;;;;;;;8.48;5.18;;;;;;;;;;10490351;28;20025;-58
2023/06/23 00:19:54;;;;;;;7.60;4.75;;;;;;;;;;10489078;28;20024;-59
2023/06/23 00:24:55;;;;;;;11.23;5.10;;;;;;;;;;10490124;28;20105;-57
2023/06/23 00:29:56;;;;;;;9.10;4.18;;;;;;;;;;10476602;28;20264;-58
2023/06/23 00:34:56;;;;;;;8.73;4.78;;;;;;;;;;10492657;28;20056;-59
2023/06/23 00:39:58;;;;;;;10.88;4.95;;;;;;;;;;10491725;28;20472;-58
2023/06/23 00:44:58;;;;;;;7.13;4.85;;;;;;;;;;10492574;28;20027;-59
2023/06/23 00:49:59;;;;;;;7.75;5.13;;;;;;;;;;10491803;28;20047;-58
2023/06/23 00:55:02;;;;;;;7.32;4.70;;;;;;;;;;10490459;28;20252;-58
2023/06/23 01:00:11;;;;;;;12.55;4.80;;;;;;;;;;10488672;28;20036;-58
2023/06/23 01:05:12;;;;;;;8.18;4.50;;;;;;;;;;10491102;28;20032;-58
2023/06/23 01:10:21;;;;;;;7.38;4.53;;;;;;;;;;10473463;28;20380;-62
2023/06/23 01:15:31;;;;;;;7.88;4.90;;;;;;;;;;10485474;28;20603;-58
2023/06/23 01:20:37;;;;;;;6.25;4.47;;;;;;;;;;10499373;28;20468;-62
2023/06/23 01:25:59;;;;;;;7.13;4.30;;;;;;;;;;10497401;28;20369;-62
2023/06/23 01:31:02;;;;;;;5.28;4.43;;;;;;;;;;10505945;28;20221;-61
2023/06/23 01:36:13;;;;;;;7.30;4.38;;;;;;;;;;10496483;28;20182;-60
2023/06/23 01:41:20;;;;;;;6.60;4.38;;;;;;;;;;10494969;28;20104;-59
2023/06/23 01:46:25;;;;;;;5.65;3.90;;;;;;;;;;10497059;28;20024;-58
2023/06/23 01:51:28;;;;;;;10.63;4.40;;;;;;;;;;10496224;28;20020;-59
2023/06/23 01:56:32;;;;;;;8.05;4.32;;;;;;;;;;10495768;28;20024;-61
2023/06/23 02:01:34;;;;;;;8.30;4.10;;;;;;;;;;10495018;28;20056;-61
2023/06/23 02:06:37;;;;;;;5.78;3.70;;;;;;;;;;10494684;28;20032;-61
2023/06/23 02:11:38;;;;;;;4.38;3.33;;;;;;;;;;10494818;28;20052;-62
2023/06/23 02:16:40;;;;;;;6.45;4.10;;;;;;;;;;10495339;28;20388;-59
2023/06/23 02:21:43;;;;;;;5.45;4.22;;;;;;;;;;10491499;28;20240;-59
2023/06/23 02:26:46;;;;;;;7.88;3.90;;;;;;;;;;10494460;28;20032;-58
2023/06/23 02:31:46;;;;;;;6.22;3.70;;;;;;;;;;10493593;28;20123;-57
2023/06/23 02:36:51;;;;;;;4.85;3.92;;;;;;;;;;10495469;28;20028;-57
2023/06/23 02:41:55;;;;;;;3.97;3.47;;;;;;;;;;10494558;28;20035;-57
2023/06/23 02:46:59;;;;;;;6.43;3.72;;;;;;;;;;10491419;28;20017;-58
2023/06/23 02:52:00;;;;;;;4.47;3.72;;;;;;;;;;10495135;28;20048;-59
2023/06/23 02:57:02;;;;;;;5.32;3.63;;;;;;;;;;10492052;28;20029;-59
2023/06/23 03:02:06;;;;;;;6.47;3.83;;;;;;;;;;10493841;28;20020;-59
2023/06/23 03:07:10;;;;;;;6.30;4.07;;;;;;;;;;10493583;28;20407;-58
2023/06/23 03:12:11;;;;;;;3.90;3.50;;;;;;;;;;10492926;28;20388;-58
2023/06/23 03:17:12;;;;;;;4.13;3.13;;;;;;;;;;10494543;28;20034;-58
2023/06/23 03:22:43;;;;;;;4.75;3.40;;;;;;;;;;10504793;28;20409;-59
2023/06/23 03:27:45;;;;;;;4.28;3.60;;;;;;;;;;10484054;28;20028;-58
2023/06/23 03:32:50;;;;;;;4.55;3.20;;;;;;;;;;10492535;28;20045;-59
2023/06/23 03:37:56;;;;;;;4.53;3.42;;;;;;;;;;10494717;28;20051;-59
2023/06/23 03:43:06;;;;;;;3.30;3.00;;;;;;;;;;10493101;28;20032;-59
2023/06/23 03:48:10;;;;;;;5.10;3.22;;;;;;;;;;10493703;28;20032;-58
2023/06/23 03:53:13;;;;;;;3.92;3.10;;;;;;;;;;10490637;28;20056;-59
2023/06/23 03:58:15;;;;;;;5.18;3.53;;;;;;;;;;10492421;28;20023;-58
2023/06/23 04:03:18;;;;;;;4.90;3.22;;;;;;;;;;10492051;28;20037;-57
2023/06/23 04:08:19;;;;;;;3.55;3.10;;;;;;;;;;10492831;28;20027;-58
2023/06/23 04:13:21;;;;;;;2.95;2.65;;;;;;;;;;10492305;28;20036;-58
2023/06/23 04:18:24;;;;;;;3.47;2.90;;;;;;;;;;10492215;28;20033;-58
2023/06/23 04:23:26;;;;;;;6.40;3.20;;;;;;;;;;10488633;28;20025;-57
2023/06/23 04:28:28;;;;;;;3.83;3.38;;;;;;;;;;10488493;28;20431;-58
2023/06/23 04:33:28;;;;;;;4.50;3.28;;;;;;;;;;10489491;28;20056;-59
2023/06/23 04:38:32;;;;;;;5.40;3.33;;;;;;;;;;10493410;28;20044;-58
2023/06/23 04:43:41;;;;;;;4.22;2.95;;;;;;;;;;10498441;28;20031;-59
2023/06/23 04:48:48;;;;;;;5.68;3.28;;;;;;;;;;10488737;28;20115;-58
2023/06/23 04:54:17;;;;;;;7.43;3.47;;;;;;;;;;10486176;28;20507;-61
2023/06/23 04:59:21;;;;;;;3.83;3.10;;;;;;;;;;10488388;28;20051;-62
2023/06/23 05:04:23;;;;;;;5.00;3.10;;;;;;;;;;10488978;28;20028;-61
2023/06/23 05:09:24;;;;;;;13.48;3.40;;;;;;;;;;10487290;28;20391;-60
2023/06/23 05:14:27;;;;;;;8.57;3.70;;;;;;;;;;10487248;28;20035;-60
2023/06/23 05:19:31;;;;;;;14.27;5.00;;;;;;;;;;10489609;28;20032;-60
2023/06/23 05:24:33;;;;;;;14.82;4.72;;;;;;;;;;10488655;28;20983;-61
2023/06/23 05:29:38;;;;;;;10.77;4.90;;;;;;;;;;10471362;28;20033;-59
2023/06/23 05:34:40;;;;;;;13.05;5.57;;;;;;;;;;10489704;28;20052;-58
2023/06/23 05:39:43;;;;;;;16.13;4.70;;;;;;;;;;10485120;28;20060;-58
2023/06/23 05:44:44;;;;;;;13.32;5.28;;;;;;;;;;10481982;28;20067;-59
2023/06/23 05:49:46;;;;;;;18.95;5.05;;;;;;;;;;10486509;28;20036;-58
2023/06/23 05:54:49;;;;;;;6.88;4.20;;;;;;;;;;10481213;28;20395;-61
2023/06/23 06:00:13;;;;;;;10.05;4.70;;;;;;;;;;10490575;28;20082;-63
2023/06/23 06:05:18;;;;;;;24.77;8.15;;;;;;;;;;10486778;28;20055;-59
2023/06/23 06:10:22;;;;;;;14.48;8.45;;;;;;;;;;10492139;28;20043;-58
2023/06/23 06:15:23;;;;;;;22.70;9.38;;;;;;;;;;10490059;28;20028;-56
2023/06/23 06:20:25;;;;;;;18.98;8.32;;;;;;;;;;10489683;28;20024;-57
2023/06/23 06:25:28;;;;;;;17.70;8.27;;;;;;;;;;10509894;28;20081;-62
2023/06/23 06:30:29;;;;;;;23.23;7.85;;;;;;;;;;10493724;28;20063;-62
2023/06/23 06:35:32;;;;;;;19.23;9.13;;;;;;;;;;10498312;28;20109;-60
2023/06/23 06:40:35;;;;;;;12.23;8.20;;;;;;;;;;10496330;28;20487;-63
2023/06/23 06:45:35;;;;;;;11.43;7.85;;;;;;;;;;10495938;28;20016;-65
2023/06/23 06:50:37;;;;;;;11.80;8.07;;;;;;;;;;10495862;28;20404;-63
2023/06/23 06:55:38;;;;;;;12.45;8.23;;;;;;;;;;10493151;28;20024;-63
2023/06/23 07:00:39;;;;;;;9.95;7.65;;;;;;;;;;10494070;28;20081;-65
2023/06/23 07:05:39;;;;;;;14.65;8.07;;;;;;;;;;10495997;28;20357;-65
2023/06/23 07:10:40;;;;;;;14.65;8.68;;;;;;;;;;10494547;28;20036;-64
2023/06/23 07:15:41;;;;;;;12.43;7.95;;;;;;;;;;10495053;28;20454;-63
2023/06/23 07:20:41;;;;;;;19.55;7.32;;;;;;;;;;10494083;28;20020;-65
2023/06/23 07:25:42;;;;;;;11.20;7.85;;;;;;;;;;10493878;28;20094;-64
2023/06/23 07:30:43;;;;;;;13.73;7.88;;;;;;;;;;10494292;28;20147;-65
2023/06/23 07:35:43;;;;;;;17.25;9.95;;;;;;;;;;10498646;28;20464;-65
2023/06/23 07:40:44;;;;;;;17.20;8.55;;;;;;;;;;10494277;28;20021;-65
2023/06/23 07:45:45;;;;;;;17.17;8.77;;;;;;;;;;10493676;28;20074;-65
2023/06/23 07:50:47;;;;;;;25.02;9.75;;;;;;;;;;10493682;28;20021;-60
2023/06/23 07:55:47;;;;;;;18.50;10.02;;;;;;;;;;10492870;28;20103;-59
2023/06/23 08:00:48;;;;;;;11.65;8.48;;;;;;;;;;10492496;28;20020;-59
2023/06/23 08:05:48;;;;;;;22.40;8.98;;;;;;;;;;10493737;28;20025;-61
2023/06/23 08:10:49;;;;;;;17.42;9.48;;;;;;;;;;10492325;28;20036;-59
2023/06/23 08:15:49;;;;;;;33.05;9.98;;;;;;;;;;10492087;28;20029;-57
2023/06/23 08:20:50;;;;;;;25.55;9.50;;;;;;;;;;10491756;28;20027;-59
2023/06/23 08:25:51;;;;;;;16.85;9.77;;;;;;;;;;10491846;28;20040;-61
2023/06/23 08:30:51;;;;;;;28.85;11.25;;;;;;;;;;10490688;28;20064;-61
2023/06/23 08:35:52;;;;;;;31.83;10.50;;;;;;;;;;10495770;28;20035;-62
2023/06/23 08:40:53;;;;;;;19.00;9.90;;;;;;;;;;10491883;28;20098;-63
2023/06/23 08:45:57;;;;;;;23.83;10.27;;;;;;;;;;10490908;28;20561;-65
2023/06/23 08:51:02;;;;;;;15.52;9.18;;;;;;;;;;10490821;28;20498;-59
2023/06/23 08:56:02;;;;;;;21.58;9.40;;;;;;;;;;10491144;28;20059;-63
2023/06/23 09:01:05;;;;;;;13.32;8.88;;;;;;;;;;10489862;28;20108;-56
2023/06/23 09:06:06;;;;;;;16.77;8.90;;;;;;;;;;10489486;28;20033;-60
2023/06/23 09:11:07;;;;;;;22.70;9.88;;;;;;;;;;10489546;28;20022;-57
2023/06/23 09:16:09;;;;;;;16.90;9.88;;;;;;;;;;10491042;28;20028;-56
2023/06/23 09:21:11;;;;;;;14.95;10.05;;;;;;;;;;10490543;28;20029;-57
2023/06/23 09:26:18;;;;;;;16.05;9.70;;;;;;;;;;10507341;28;20468;-58
2023/06/23 09:31:19;;;;;;;17.73;9.07;;;;;;;;;;10479469;28;20089;-58
2023/06/23 09:36:19;;;;;;;20.13;9.35;;;;;;;;;;10500405;28;20504;-56
2023/06/23 09:41:20;;;;;;;26.10;10.02;;;;;;;;;;10498700;28;20035;-61
2023/06/23 09:46:25;;;;;;;23.60;10.60;;;;;;;;;;10514321;28;20031;-57
2023/06/23 09:51:25;;;;;;;19.48;10.07;;;;;;;;;;10497742;28;20043;-55
2023/06/23 09:56:26;;;;;;;18.52;10.38;;;;;;;;;;10496820;28;20025;-59
2023/06/23 10:01:27;;;;;;;21.30;9.40;;;;;;;;;;10499116;28;20028;-60
2023/06/23 10:06:32;;;;;;;18.75;9.63;;;;;;;;;;10497263;28;20028;-59
2023/06/23 10:11:42;;;;;;;25.50;10.63;;;;;;;;;;10497560;28;20068;-58
2023/06/23 10:16:45;;;;;;;20.15;10.70;;;;;;;;;;10496857;28;20066;-60
2023/06/23 10:21:47;;;;;;;24.05;9.95;;;;;;;;;;10497189;28;20473;-57
2023/06/23 10:26:51;;;;;;;23.58;9.60;;;;;;;;;;10497077;28;20055;-57
2023/06/23 10:31:56;;;;;;;22.55;10.27;;;;;;;;;;10496764;28;20044;-58
2023/06/23 10:37:00;;;;;;;20.95;9.32;;;;;;;;;;10501133;28;20529;-63
2023/06/23 10:42:01;;;;;;;18.08;9.55;;;;;;;;;;10493993;28;20031;-59
2023/06/23 10:47:02;;;;;;;15.15;9.30;;;;;;;;;;10496825;28;20480;-62
2023/06/23 10:52:04;;;;;;;20.98;9.77;;;;;;;;;;10496160;28;20028;-57
2023/06/23 10:57:13;;;;;;;18.05;9.35;;;;;;;;;;10500850;28;20020;-59
2023/06/23 11:02:14;;;;;;;28.25;10.32;;;;;;;;;;10495994;28;20036;-58
2023/06/23 11:07:14;;;;;;;22.00;9.73;;;;;;;;;;10494752;28;20463;-58
2023/06/23 11:12:39;;;;;;;23.60;10.20;;;;;;;;;;10494367;28;21035;-57
2023/06/23 11:17:45;;;;;;;20.90;10.07;;;;;;;;;;10494032;28;20038;-58
2023/06/23 11:23:06;;;;;;;24.23;9.82;;;;;;;;;;10493522;28;20028;-66
2023/06/23 11:28:36;;;;;;;22.60;9.82;;;;;;;;;;10492561;28;20392;-66
2023/06/23 11:33:55;;;;;;;18.45;8.57;;;;;;;;;;10493595;28;20511;-66
2023/06/23 11:38:57;;;;;;;15.27;7.70;;;;;;;;;;10490502;28;20047;-62
2023/06/23 11:44:02;;;;;;;20.50;8.25;;;;;;;;;;10493293;28;20484;-60
2023/06/23 11:49:10;;;;;;;16.63;7.50;;;;;;;;;;10492783;28;20502;-60
2023/06/23 11:54:11;;;;;;;23.98;7.50;;;;;;;;;;10492668;28;20038;-59
2023/06/23 11:59:13;;;;;;;17.23;7.47;;;;;;;;;;10492402;28;20035;-63
2023/06/23 12:04:15;;;;;;;18.30;6.93;;;;;;;;;;10490473;28;20040;-63
2023/06/23 12:09:16;;;;;;;20.30;7.18;;;;;;;;;;10491790;28;20036;-65
2023/06/23 12:14:17;;;;;;;13.00;7.15;;;;;;;;;;10490776;28;20040;-62
2023/06/23 12:19:21;;;;;;;15.15;6.78;;;;;;;;;;10491938;28;20021;-65
2023/06/23 12:24:22;;;;;;;17.25;5.75;;;;;;;;;;10491554;28;20438;-65
2023/06/23 12:29:23;;;;;;;16.75;6.70;;;;;;;;;;10491466;28;20016;-56
2023/06/23 12:34:48;;;;;;;16.17;6.35;;;;;;;;;;10490637;28;20044;-57
2023/06/23 12:39:53;;;;;;;15.30;7.00;;;;;;;;;;10490172;28;20024;-65
2023/06/23 12:44:54;;;;;;;16.63;7.05;;;;;;;;;;10491182;28;20016;-63
2023/06/23 12:50:06;;;;;;;18.80;7.03;;;;;;;;;;10490958;28;20353;-65
2023/06/23 12:55:07;;;;;;;14.88;6.57;;;;;;;;;;10490869;28;20103;-65
2023/06/23 13:00:09;;;;;;;17.80;6.40;;;;;;;;;;10490826;28;20056;-65
2023/06/23 13:05:10;;;;;;;15.32;6.75;;;;;;;;;;10489900;28;20036;-63
2023/06/23 13:10:11;;;;;;;8.82;5.93;;;;;;;;;;10490369;28;20032;-65
2023/06/23 13:15:11;;;;;;;13.18;6.35;;;;;;;;;;10490299;28;20080;-64
2023/06/23 13:20:13;;;;;;;16.25;5.75;;;;;;;;;;10490275;28;20032;-65
2023/06/23 13:25:13;;;;;;;12.43;5.82;;;;;;;;;;10490440;28;20074;-63
2023/06/23 13:30:14;;;;;;;12.52;5.78;;;;;;;;;;10489359;28;20656;-61
2023/06/23 13:35:15;;;;;;;9.88;6.03;;;;;;;;;;10482918;28;20024;-57
2023/06/23 13:40:16;;;;;;;9.82;6.18;;;;;;;;;;10489657;28;20138;-58
2023/06/23 13:45:16;;;;;;;14.65;5.93;;;;;;;;;;10490034;28;20032;-57
2023/06/23 13:50:17;;;;;;;8.85;5.88;;;;;;;;;;10489614;28;20094;-59
2023/06/23 13:55:18;;;;;;;11.77;5.90;;;;;;;;;;10489839;28;20028;-59
2023/06/23 14:00:19;;;;;;;11.75;6.15;;;;;;;;;;10489359;28;20036;-58
2023/06/23 14:05:20;;;;;;;10.40;5.72;;;;;;;;;;10489498;28;20037;-57
2023/06/23 14:10:20;;;;;;;8.63;5.30;;;;;;;;;;10489315;28;20033;-56
2023/06/23 14:15:21;;;;;;;11.40;5.40;;;;;;;;;;10489233;28;20472;-65
2023/06/23 14:20:23;;;;;;;9.82;6.05;;;;;;;;;;10495887;28;20074;-63
2023/06/23 14:25:24;;;;;;;11.05;5.45;;;;;;;;;;10495459;28;20356;-64
2023/06/23 14:30:24;;;;;;;9.98;5.22;;;;;;;;;;10494942;28;20039;-57
2023/06/23 14:35:25;;;;;;;10.63;5.75;;;;;;;;;;10493763;28;20045;-65
2023/06/23 14:40:25;;;;;;;9.63;5.85;;;;;;;;;;10494712;28;20046;-64
2023/06/23 14:45:34;;;;;;;11.23;5.07;;;;;;;;;;10496104;28;20021;-57
2023/06/23 14:50:35;;;;;;;9.18;4.97;;;;;;;;;;10495070;28;20429;-57
2023/06/23 14:55:36;;;;;;;7.47;4.47;;;;;;;;;;10495402;28;20024;-60
2023/06/23 15:00:37;;;;;;;9.63;4.85;;;;;;;;;;10495174;28;20028;-57
2023/06/23 15:05:37;;;;;;;8.80;4.35;;;;;;;;;;10495217;28;20029;-60
2023/06/23 15:10:38;;;;;;;7.60;4.60;;;;;;;;;;10495100;28;20036;-62
2023/06/23 15:15:39;;;;;;;8.23;4.85;;;;;;;;;;10493419;28;20024;-58
2023/06/23 15:20:39;;;;;;;9.40;4.75;;;;;;;;;;10494360;28;20013;-58
2023/06/23 15:25:40;;;;;;;6.82;4.40;;;;;;;;;;10493937;28;20389;-58
2023/06/23 15:30:40;;;;;;;8.45;4.57;;;;;;;;;;10493127;28;20448;-58
2023/06/23 15:35:41;;;;;;;9.10;4.70;;;;;;;;;;10493946;28;20075;-58
2023/06/23 15:40:43;;;;;;;7.47;4.40;;;;;;;;;;10494100;28;20028;-60
2023/06/23 15:45:44;;;;;;;6.40;3.97;;;;;;;;;;10491470;28;20029;-59
2023/06/23 15:50:46;;;;;;;6.13;4.07;;;;;;;;;;10492594;28;20025;-57
2023/06/23 15:55:46;;;;;;;8.52;4.03;;;;;;;;;;10493031;28;20033;-59
2023/06/23 16:00:47;;;;;;;5.53;3.50;;;;;;;;;;10492466;28;20365;-56
2023/06/23 16:05:48;;;;;;;5.40;3.97;;;;;;;;;;10492135;28;20477;-56
2023/06/23 16:10:49;;;;;;;6.65;3.58;;;;;;;;;;10492467;28;20028;-61
2023/06/23 16:15:49;;;;;;;4.15;3.53;;;;;;;;;;10491472;28;20097;-56
2023/06/23 16:20:50;;;;;;;8.98;4.40;;;;;;;;;;10492095;28;20033;-57
2023/06/23 16:25:50;;;;;;;5.88;3.67;;;;;;;;;;10491436;28;20036;-63
2023/06/23 16:30:51;;;;;;;6.55;3.72;;;;;;;;;;10490794;28;20503;-56
2023/06/23 16:35:52;;;;;;;6.07;3.47;;;;;;;;;;10492102;28;20024;-59
2023/06/23 16:40:52;;;;;;;5.10;3.40;;;;;;;;;;10490474;28;20035;-63
2023/06/23 16:45:53;;;;;;;4.30;2.97;;;;;;;;;;10490182;28;20051;-64
2023/06/23 16:50:53;;;;;;;4.03;3.20;;;;;;;;;;10490788;28;20471;-65
2023/06/23 16:55:54;;;;;;;7.40;3.20;;;;;;;;;;10491511;28;20480;-64
2023/06/23 17:00:54;;;;;;;5.15;3.58;;;;;;;;;;10491057;28;20025;-65
2023/06/23 17:05:55;;;;;;;4.30;3.28;;;;;;;;;;10491167;28;20029;-63
2023/06/23 17:10:56;;;;;;;3.78;2.95;;;;;;;;;;10491315;28;20032;-65
2023/06/23 17:15:56;;;;;;;6.05;3.50;;;;;;;;;;10490637;28;20024;-64
2023/06/23 17:20:57;;;;;;;3.90;3.15;;;;;;;;;;10491158;28;20031;-64
2023/06/23 17:25:57;;;;;;;4.50;3.70;;;;;;;;;;10491259;28;20032;-65
2023/06/23 17:30:58;;;;;;;4.82;3.28;;;;;;;;;;10489954;28;20052;-65
2023/06/23 17:35:59;;;;;;;4.93;3.25;;;;;;;;;;10489244;28;20082;-65
2023/06/23 17:41:00;;;;;;;4.00;3.00;;;;;;;;;;10490283;28;20055;-63
2023/06/23 17:46:00;;;;;;;4.63;2.97;;;;;;;;;;10477653;28;20035;-65
2023/06/23 17:51:02;;;;;;;3.90;2.85;;;;;;;;;;10489111;28;20107;-65
2023/06/23 17:56:03;;;;;;;11.02;2.88;;;;;;;;;;10501151;28;20042;-64
2023/06/23 18:01:04;;;;;;;4.82;3.00;;;;;;;;;;10496725;28;20116;-65
2023/06/23 18:06:04;;;;;;;7.40;3.00;;;;;;;;;;10498025;28;20094;-66
2023/06/23 18:11:05;;;;;;;4.10;2.75;;;;;;;;;;10497592;28;20024;-64
2023/06/23 18:16:06;;;;;;;4.15;3.05;;;;;;;;;;10495894;28;20024;-63
2023/06/23 18:21:06;;;;;;;4.60;3.22;;;;;;;;;;10494085;28;20039;-64
2023/06/23 18:26:07;;;;;;;4.43;3.28;;;;;;;;;;10494887;28;20488;-62
2023/06/23 18:31:07;;;;;;;5.03;2.78;;;;;;;;;;10493872;28;20391;-54
2023/06/23 18:36:08;;;;;;;3.63;2.80;;;;;;;;;;10496534;28;20030;-56
2023/06/23 18:41:09;;;;;;;5.43;2.97;;;;;;;;;;10496585;28;20027;-65
2023/06/23 18:46:09;;;;;;;4.72;3.20;;;;;;;;;;10494422;28;20043;-66
2023/06/23 18:51:10;;;;;;;3.88;2.70;;;;;;;;;;10492753;28;20035;-56
2023/06/23 18:56:10;;;;;;;13.60;2.90;;;;;;;;;;10491282;28;20252;-58
2023/06/23 19:01:11;;;;;;;10.95;3.63;;;;;;;;;;10493483;28;20033;-62
2023/06/23 19:06:12;;;;;;;6.60;3.38;;;;;;;;;;10488327;28;20501;-61
2023/06/23 19:11:13;;;;;;;7.68;3.55;;;;;;;;;;10491033;28;20033;-61
2023/06/23 19:16:13;;;;;;;12.00;3.90;;;;;;;;;;10485838;28;20056;-60
2023/06/23 19:21:14;;;;;;;5.38;3.25;;;;;;;;;;10493094;28;20032;-61
2023/06/23 19:26:14;;;;;;;7.53;3.08;;;;;;;;;;10492940;28;20032;-58
2023/06/23 19:31:15;;;;;;;6.88;3.70;;;;;;;;;;10489583;28;20057;-61
2023/06/23 19:36:16;;;;;;;10.80;4.57;;;;;;;;;;10488486;28;20032;-59
2023/06/23 19:41:16;;;;;;;6.90;3.72;;;;;;;;;;10495599;28;20029;-60
2023/06/23 19:46:17;;;;;;;11.00;4.72;;;;;;;;;;10500235;28;20032;-58
2023/06/23 19:51:17;;;;;;;9.07;4.00;;;;;;;;;;10492362;28;20037;-61
2023/06/23 19:56:18;;;;;;;10.68;4.40;;;;;;;;;;10488674;28;20431;-61
2023/06/23 20:01:19;;;;;;;12.60;4.60;;;;;;;;;;10460841;28;20025;-61
2023/06/23 20:06:20;;;;;;;8.00;4.25;;;;;;;;;;10457317;28;20415;-61
2023/06/23 20:11:21;;;;;;;13.02;4.93;;;;;;;;;;10458453;28;20032;-60
2023/06/23 20:16:21;;;;;;;12.20;6.00;;;;;;;;;;10458461;28;20033;-61
2023/06/23 20:21:22;;;;;;;9.55;5.70;;;;;;;;;;10468317;28;20028;-60
2023/06/23 20:26:22;;;;;;;12.90;6.35;;;;;;;;;;10491925;28;20464;-61
2023/06/23 20:31:23;;;;;;;9.18;5.40;;;;;;;;;;10490785;28;20048;-60
2023/06/23 20:36:24;;;;;;;12.85;5.95;;;;;;;;;;10491156;28;20032;-59
2023/06/23 20:41:24;;;;;;;11.10;5.75;;;;;;;;;;10491296;28;20024;-60
2023/06/23 20:46:25;;;;;;;8.85;5.57;;;;;;;;;;10493332;28;20477;-60
2023/06/23 20:51:26;;;;;;;13.57;5.25;;;;;;;;;;10490685;28;20043;-60
2023/06/23 20:56:26;;;;;;;14.70;6.25;;;;;;;;;;10491339;28;20033;-60
2023/06/23 21:01:27;;;;;;;11.20;5.55;;;;;;;;;;10492118;28;20048;-60
2023/06/23 21:06:28;;;;;;;12.68;6.80;;;;;;;;;;10491854;28;20254;-60
2023/06/23 21:11:28;;;;;;;14.52;7.60;;;;;;;;;;10490184;28;20388;-61
2023/06/23 21:16:29;;;;;;;13.18;7.70;;;;;;;;;;10490831;28;20039;-61
2023/06/23 21:21:30;;;;;;;15.43;8.57;;;;;;;;;;10491368;28;20035;-60
2023/06/23 21:26:30;;;;;;;12.73;8.07;;;;;;;;;;10492746;28;20029;-60
2023/06/23 21:31:31;;;;;;;15.07;7.82;;;;;;;;;;10498868;28;20041;-61
2023/06/23 21:36:31;;;;;;;10.52;7.68;;;;;;;;;;10499061;28;20112;-59
2023/06/23 21:41:32;;;;;;;14.90;8.13;;;;;;;;;;10483180;28;20025;-61
2023/06/23 21:46:33;;;;;;;17.17;8.35;;;;;;;;;;10469466;28;20082;-60
2023/06/23 21:51:33;;;;;;;20.15;7.15;;;;;;;;;;10466367;28;20044;-61
2023/06/23 21:56:34;;;;;;;16.75;7.43;;;;;;;;;;10492171;28;20024;-60
2023/06/23 22:01:35;;;;;;;12.43;7.15;;;;;;;;;;10496000;28;20044;-60
2023/06/23 22:06:35;;;;;;;12.88;7.30;;;;;;;;;;10496274;28;20012;-58
2023/06/23 22:11:36;;;;;;;17.55;6.75;;;;;;;;;;10496113;28;20035;-57
2023/06/23 22:16:36;;;;;;;13.23;6.97;;;;;;;;;;10494586;28;20103;-57
2023/06/23 22:21:38;;;;;;;16.55;6.97;;;;;;;;;;10494370;28;20029;-58
2023/06/23 22:26:38;;;;;;;10.25;6.28;;;;;;;;;;10495429;28;20093;-57
2023/06/23 22:31:39;;;;;;;14.60;6.43;;;;;;;;;;10494840;28;20041;-58
2023/06/23 22:36:40;;;;;;;14.40;6.13;;;;;;;;;;10495204;28;20059;-57
2023/06/23 22:41:40;;;;;;;17.50;6.55;;;;;;;;;;10495352;28;20494;-57
2023/06/23 22:46:41;;;;;;;16.08;6.03;;;;;;;;;;10495180;28;20480;-57
2023/06/23 22:51:41;;;;;;;18.42;6.20;;;;;;;;;;10496096;28;20028;-57
2023/06/23 22:56:42;;;;;;;13.75;7.00;;;;;;;;;;10496616;28;20031;-58
2023/06/23 23:01:43;;;;;;;9.48;6.00;;;;;;;;;;10495770;28;20048;-57
2023/06/23 23:06:43;;;;;;;9.27;5.85;;;;;;;;;;10496474;28;20017;-60
2023/06/23 23:11:44;;;;;;;9.60;5.38;;;;;;;;;;10493528;28;20468;-60
2023/06/23 23:16:45;;;;;;;12.68;5.90;;;;;;;;;;10491982;28;20074;-60
2023/06/23 23:21:45;;;;;;;14.10;5.40;;;;;;;;;;10495430;28;20024;-60
2023/06/23 23:26:51;;;;;;;10.23;4.80;;;;;;;;;;10494549;28;20051;-60
2023/06/23 23:31:59;;;;;;;12.15;5.32;;;;;;;;;;10493605;28;20059;-60
2023/06/23 23:37:08;;;;;;;;;;;;;;;;;;10494982;28;20020;-60
2023/06/23 23:42:09;;;;;;;10.02;4.88;;;;;;;;;;10492817;28;20011;-60
2023/06/23 23:47:09;;;;;;;15.82;4.97;;;;;;;;;;10493827;28;20414;-58
2023/06/23 23:52:10;;;;;;;11.48;5.43;;;;;;;;;;10493215;28;20256;-60
2023/06/23 23:57:11;;;;;;;10.10;4.72;;;;;;;;;;10493952;28;20115;-60
